Time;durP1;ratioP1;P1;durP2;ratioP2;P2;SDS_P1;SDS_P2;PMS_P1;PMS_P2;Temp;Humidity;BMP_temperature;BMP_pressure;BME280_temperature;BME280_humidity;BME280_pressure;Samples;Min_cycle;Max_cycle;Signal;HPM_P1;HPM_P2
2023/10/18 00:00:58;;;;;;;46.45;23.13;;;;;;;2.82;100.00;96247.91;5021774;28;20049;-69
2023/10/18 00:03:30;;;;;;;40.13;23.27;;;;;;;2.82;100.00;96248.69;5017810;28;20533;-69
2023/10/18 00:06:05;;;;;;;32.30;20.00;;;;;;;3.06;100.00;96253.50;5021827;28;20049;-69
2023/10/18 00:08:31;;;;;;;39.97;22.63;;;;;;;3.04;100.00;96247.63;5022210;28;20582;-69
2023/10/18 00:11:00;;;;;;;36.45;22.73;;;;;;;3.12;100.00;96258.72;5021867;28;20049;-69
2023/10/18 00:13:25;;;;;;;36.57;22.03;;;;;;;3.17;100.00;96255.78;5018439;28;20042;-68
2023/10/18 00:15:53;;;;;;;35.47;20.80;;;;;;;3.18;100.00;96254.69;5022068;28;20063;-69
2023/10/18 00:18:21;;;;;;;37.83;22.02;;;;;;;3.25;100.00;96257.66;5016480;28;20099;-69
2023/10/18 00:20:47;;;;;;;36.67;21.90;;;;;;;3.19;100.00;96250.88;5022056;28;20099;-69
2023/10/18 00:23:13;;;;;;;38.60;22.80;;;;;;;3.18;100.00;96252.78;4999827;28;20045;-68
2023/10/18 00:25:39;;;;;;;37.40;22.13;;;;;;;3.30;100.00;96248.56;5022628;28;20435;-67
2023/10/18 00:28:04;;;;;;;33.58;21.05;;;;;;;3.43;100.00;96240.16;5016814;28;20045;-67
2023/10/18 00:30:30;;;;;;;36.42;21.42;;;;;;;3.31;100.00;96234.69;5022592;28;20045;-66
2023/10/18 00:32:56;;;;;;;32.97;20.00;;;;;;;3.30;100.00;96226.91;5021623;28;20068;-68
2023/10/18 00:35:31;;;;;;;30.40;18.77;;;;;;;3.37;100.00;96224.47;5017693;28;20065;-68
2023/10/18 00:37:57;;;;;;;31.45;18.67;;;;;;;3.25;100.00;96217.84;5027938;28;20073;-66
2023/10/18 00:43:03;;;;;;;32.00;18.08;;;;;;;3.03;100.00;96229.81;5035649;28;20132;-67
2023/10/18 00:45:29;;;;;;;31.15;19.15;;;;;;;2.95;100.00;96222.53;4985651;28;20045;-68
2023/10/18 00:47:56;;;;;;;34.55;19.55;;;;;;;3.10;100.00;96209.53;5019892;28;20103;-67
2023/10/18 00:50:27;;;;;;;31.40;19.50;;;;;;;3.14;100.00;96215.88;5016864;28;20376;-67
2023/10/18 00:52:53;;;;;;;32.17;19.08;;;;;;;3.14;100.00;96208.56;5020321;28;20038;-67
2023/10/18 00:55:19;;;;;;;33.17;19.63;;;;;;;3.13;100.00;96198.84;5016510;28;20500;-68
2023/10/18 00:57:44;;;;;;;33.45;19.67;;;;;;;3.13;100.00;96201.53;5025878;28;20052;-68
2023/10/18 01:00:19;;;;;;;33.92;19.83;;;;;;;3.15;100.00;96193.91;5020490;28;20044;-67
2023/10/18 01:02:46;;;;;;;33.25;19.52;;;;;;;3.19;100.00;96194.81;5013880;28;20056;-68
2023/10/18 01:05:15;;;;;;;35.22;20.92;;;;;;;3.15;100.00;96185.78;4999187;28;20119;-68
2023/10/18 01:07:42;;;;;;;34.45;20.95;;;;;;;3.34;100.00;96187.22;5013318;28;20423;-68
2023/10/18 01:10:12;;;;;;;41.30;23.88;;;;;;;3.34;100.00;96187.22;5016026;28;20463;-67
2023/10/18 01:12:39;;;;;;;40.70;23.73;;;;;;;3.34;100.00;96185.28;5021414;28;20092;-68
2023/10/18 01:15:06;;;;;;;39.50;23.00;;;;;;;3.38;100.00;96198.97;5016657;28;20043;-66
2023/10/18 01:17:42;;;;;;;37.58;22.35;;;;;;;3.31;100.00;96201.41;5021270;28;20107;-66
2023/10/18 01:22:52;;;;;;;44.70;26.25;;;;;;;3.38;100.00;96178.09;5021526;28;20429;-69
2023/10/18 01:25:18;;;;;;;45.30;26.25;;;;;;;3.29;100.00;96171.19;5015558;28;20080;-68
2023/10/18 01:27:45;;;;;;;44.50;25.67;;;;;;;3.40;100.00;96172.34;5022092;28;20455;-68
2023/10/18 01:30:14;;;;;;;44.63;25.73;;;;;;;3.45;100.00;96172.16;5027132;28;20045;-68
2023/10/18 01:32:40;;;;;;;46.22;27.42;;;;;;;3.47;100.00;96174.53;5021116;28;20037;-68
2023/10/18 01:35:06;;;;;;;50.00;28.02;;;;;;;3.43;100.00;96167.06;5016808;28;20404;-67
2023/10/18 01:37:31;;;;;;;44.33;27.95;;;;;;;3.40;100.00;96165.03;5023277;28;20136;-68
2023/10/18 01:40:09;;;;;;;48.35;28.15;;;;;;;3.37;100.00;96149.44;5026054;28;20065;-67
2023/10/18 01:42:38;;;;;;;46.28;26.25;;;;;;;3.33;100.00;96162.06;5025132;28;20049;-67
2023/10/18 01:45:07;;;;;;;47.22;27.48;;;;;;;3.38;100.00;96161.84;5020868;28;20496;-67
2023/10/18 01:47:35;;;;;;;54.10;31.02;;;;;;;3.42;100.00;96157.38;5019433;28;20041;-68
2023/10/18 01:50:00;;;;;;;53.70;30.98;;;;;;;3.47;100.00;96155.56;5026019;28;20046;-67
2023/10/18 01:52:29;;;;;;;55.00;30.60;;;;;;;3.44;100.00;96143.50;5020825;28;20119;-67
2023/10/18 01:54:54;;;;;;;51.65;29.67;;;;;;;3.45;100.00;96158.59;5026968;28;20136;-67
2023/10/18 01:57:20;;;;;;;54.10;30.67;;;;;;;3.47;100.00;96152.88;5019254;28;20125;-67
2023/10/18 01:59:50;;;;;;;53.80;30.30;;;;;;;3.49;100.00;96154.09;5026281;28;20072;-68
2023/10/18 02:02:16;;;;;;;51.83;30.20;;;;;;;3.46;100.00;96160.19;5020119;28;20124;-68
2023/10/18 02:04:44;;;;;;;51.83;29.20;;;;;;;3.50;100.00;96165.75;5016750;28;20518;-68
2023/10/18 02:07:09;;;;;;;50.22;26.45;;;;;;;3.78;100.00;96150.47;5019499;28;20439;-67
2023/10/18 02:09:35;;;;;;;46.63;26.13;;;;;;;3.72;100.00;96157.22;5032837;28;20033;-67
2023/10/18 02:12:06;;;;;;;42.78;25.13;;;;;;;3.83;100.00;96147.56;5024805;28;20381;-67
2023/10/18 02:14:33;;;;;;;48.25;26.15;;;;;;;3.94;100.00;96149.81;5006709;28;20065;-68
2023/10/18 02:17:09;;;;;;;36.88;22.77;;;;;;;3.96;100.00;96144.84;5024389;28;20041;-67
2023/10/18 02:19:37;;;;;;;35.45;20.80;;;;;;;3.98;100.00;96145.28;5024149;28;20045;-68
2023/10/18 02:22:07;;;;;;;37.78;22.17;;;;;;;4.08;100.00;96147.56;5024043;28;20049;-68
2023/10/18 02:24:33;;;;;;;33.50;20.77;;;;;;;4.06;100.00;96143.63;5025022;28;20045;-68
2023/10/18 02:27:02;;;;;;;34.55;19.70;;;;;;;4.11;100.00;96146.09;5024354;28;20399;-68
2023/10/18 02:29:34;;;;;;;35.97;21.63;;;;;;;4.14;100.00;96142.69;5022208;28;20554;-69
2023/10/18 02:32:04;;;;;;;33.97;19.90;;;;;;;4.17;100.00;96152.88;5023622;28;20068;-68
2023/10/18 02:34:33;;;;;;;33.22;19.83;;;;;;;4.19;100.00;96154.09;5023670;28;20045;-68
2023/10/18 02:37:00;;;;;;;31.95;20.08;;;;;;;4.24;100.00;96141.47;5023705;28;20038;-68
2023/10/18 02:39:32;;;;;;;34.22;20.65;;;;;;;4.39;100.00;96140.78;5017638;28;20536;-68
2023/10/18 02:41:58;;;;;;;30.95;19.20;;;;;;;4.49;100.00;96134.13;5023861;28;20133;-68
2023/10/18 02:44:24;;;;;;;34.10;20.13;;;;;;;4.45;100.00;96136.72;4993084;28;21052;-68
2023/10/18 02:46:54;;;;;;;34.30;20.48;;;;;;;4.56;100.00;96142.47;5017740;28;20561;-68
2023/10/18 02:49:22;;;;;;;;;;;;;;;4.54;100.00;96145.53;5019600;28;20052;-67
2023/10/18 02:51:49;;;;;;;30.52;18.85;;;;;;;4.46;100.00;96143.72;5031777;28;19924;-68
2023/10/18 02:54:17;;;;;;;31.52;18.95;;;;;;;4.48;100.00;96146.09;5020031;28;20373;-69
2023/10/18 02:56:50;;;;;;;31.63;19.48;;;;;;;4.58;100.00;96138.28;5023166;28;20037;-68
2023/10/18 02:59:24;;;;;;;29.38;19.20;;;;;;;4.54;100.00;96137.38;5019575;28;20038;-68
2023/10/18 03:01:52;;;;;;;29.23;18.30;;;;;;;4.53;100.00;96141.22;5023297;28;20033;-67
2023/10/18 03:04:19;;;;;;;27.23;17.20;;;;;;;4.60;100.00;96138.72;5000367;28;20523;-68
2023/10/18 03:06:50;;;;;;;27.55;18.52;;;;;;;4.58;100.00;96141.00;5031889;28;20497;-68
2023/10/18 03:09:38;;;;;;;29.52;17.98;;;;;;;4.62;100.00;96137.59;5027474;28;20044;-69
2023/10/18 03:12:13;;;;;;;29.13;18.80;;;;;;;4.71;100.00;96140.97;5014797;28;20040;-67
2023/10/18 03:14:39;;;;;;;29.25;17.60;;;;;;;4.72;100.00;96148.00;5031395;28;20131;-69
2023/10/18 03:17:41;;;;;;;30.88;17.83;;;;;;;4.67;100.00;96150.94;5018127;28;20087;-69
2023/10/18 03:20:02;;;;;;;25.13;16.08;;;;;;;4.64;100.00;96146.97;5020674;28;20112;-68
2023/10/18 03:22:31;;;;;;;29.60;18.33;;;;;;;4.71;100.00;96152.63;5029802;28;20519;-68
2023/10/18 03:25:00;;;;;;;30.95;19.30;;;;;;;4.72;100.00;96146.06;5024409;28;20508;-68
2023/10/18 03:27:34;;;;;;;27.67;17.10;;;;;;;4.75;100.00;96148.09;5017854;28;20045;-68
2023/10/18 03:30:11;;;;;;;28.25;17.45;;;;;;;4.82;100.00;96144.78;5024367;28;20496;-68
2023/10/18 03:32:38;;;;;;;28.73;18.73;;;;;;;4.74;100.00;96137.59;5022590;28;20052;-67
2023/10/18 03:35:05;;;;;;;29.17;18.55;;;;;;;4.56;100.00;96135.13;5020294;28;20120;-67
2023/10/18 03:37:33;;;;;;;29.17;18.73;;;;;;;4.50;100.00;96128.38;5022272;28;20124;-68
2023/10/18 03:40:08;;;;;;;27.35;18.10;;;;;;;4.68;100.00;96126.19;5023235;28;20069;-68
2023/10/18 03:42:33;;;;;;;30.65;19.67;;;;;;;4.51;100.00;96110.94;5022601;28;20075;-68
2023/10/18 03:45:10;;;;;;;29.25;19.48;;;;;;;4.32;100.00;96114.25;5021481;28;20116;-68
2023/10/18 03:47:37;;;;;;;31.20;19.92;;;;;;;4.22;100.00;96101.94;5017409;28;20037;-68
2023/10/18 03:50:13;;;;;;;32.45;20.73;;;;;;;4.13;100.00;96103.97;5021028;28;20029;-67
2023/10/18 03:52:38;;;;;;;37.25;23.63;;;;;;;4.11;100.00;96102.75;5022842;28;20068;-68
2023/10/18 03:57:29;;;;;;;36.55;24.35;;;;;;;4.04;100.00;96094.38;5021920;28;20120;-68
2023/10/18 03:59:58;;;;;;;41.17;24.55;;;;;;;3.98;100.00;96107.34;5020798;28;20057;-68
2023/10/18 04:02:27;;;;;;;38.70;24.63;;;;;;;3.98;100.00;96104.63;5017730;28;20490;-68
2023/10/18 04:05:00;;;;;;;37.90;24.88;;;;;;;4.00;100.00;96105.13;5022747;28;20125;-67
2023/10/18 04:07:26;;;;;;;41.35;25.50;;;;;;;3.98;100.00;96097.31;5018543;28;20095;-68
2023/10/18 04:12:29;;;;;;;40.03;25.02;;;;;;;3.95;100.00;96097.22;5021862;28;20127;-68
2023/10/18 04:15:00;;;;;;;39.67;25.52;;;;;;;3.98;100.00;96096.50;5023894;28;20056;-68
2023/10/18 04:17:37;;;;;;;39.75;25.50;;;;;;;4.00;100.00;96089.63;5000215;28;20577;-68
2023/10/18 04:20:22;;;;;;;41.58;25.05;;;;;;;3.99;100.00;96103.53;5020200;28;20033;-67
2023/10/18 04:22:48;;;;;;;37.75;24.33;;;;;;;4.02;100.00;96092.00;5013825;28;20037;-68
2023/10/18 04:25:26;;;;;;;40.78;24.95;;;;;;;3.97;100.00;96079.47;5017143;28;20130;-68
2023/10/18 04:27:55;;;;;;;36.03;24.08;;;;;;;3.98;100.00;96077.53;5016209;28;20123;-68
2023/10/18 04:30:23;;;;;;;38.38;24.30;;;;;;;4.03;100.00;96077.31;5004901;28;20049;-68
2023/10/18 04:33:12;;;;;;;40.67;25.02;;;;;;;3.98;100.00;96075.66;5022546;28;20037;-68
2023/10/18 04:35:47;;;;;;;40.45;25.67;;;;;;;3.85;100.00;96079.47;5031038;28;20479;-68
2023/10/18 04:38:30;;;;;;;38.47;24.55;;;;;;;3.83;100.00;96079.00;5025065;28;20073;-68
2023/10/18 04:43:27;;;;;;;;;;;;;;;3.80;100.00;96077.78;5018244;28;20021;-70
2023/10/18 04:46:14;;;;;;;40.00;24.70;;;;;;;3.80;100.00;96072.38;5047659;28;19917;-69
2023/10/18 04:54:09;;;;;;;38.22;24.27;;;;;;;4.02;100.00;96073.81;5019211;28;20037;-69
2023/10/18 04:56:37;;;;;;;39.22;23.95;;;;;;;4.06;100.00;96076.66;5022757;28;20045;-70
2023/10/18 04:59:11;;;;;;;42.17;26.17;;;;;;;3.85;100.00;96059.72;5039036;28;20581;-69
2023/10/18 05:04:20;;;;;;;37.97;24.52;;;;;;;4.17;100.00;96074.28;5017949;28;20036;-70
2023/10/18 05:06:55;;;;;;;36.97;24.48;;;;;;;3.91;100.00;96077.34;5023459;28;20045;-71
2023/10/18 05:09:34;;;;;;;35.42;22.52;;;;;;;4.02;100.00;96070.34;5017849;28;20040;-70
2023/10/18 05:12:07;;;;;;;39.00;23.03;;;;;;;3.95;100.00;96057.34;4998214;28;20041;-69
2023/10/18 05:14:42;;;;;;;36.28;23.15;;;;;;;3.91;100.00;96058.38;5029168;28;20050;-70
2023/10/18 05:17:17;;;;;;;39.75;24.85;;;;;;;3.76;100.00;96051.69;5023492;28;20072;-70
2023/10/18 05:19:42;;;;;;;38.10;24.20;;;;;;;3.71;100.00;96058.16;5005255;28;20049;-70
2023/10/18 05:22:09;;;;;;;40.95;24.35;;;;;;;3.79;100.00;96054.53;5017467;28;20037;-70
2023/10/18 05:24:38;;;;;;;42.25;26.38;;;;;;;3.62;100.00;96055.53;4996217;28;20136;-70
2023/10/18 05:27:19;;;;;;;44.75;27.65;;;;;;;3.61;100.00;96045.81;5017650;28;20084;-68
2023/10/18 05:29:52;;;;;;;39.13;25.42;;;;;;;3.74;100.00;96038.47;5023751;28;20044;-69
2023/10/18 05:35:22;;;;;;;42.22;26.25;;;;;;;3.66;100.00;96044.81;5023142;28;20037;-70
2023/10/18 05:37:58;;;;;;;39.15;25.02;;;;;;;3.63;100.00;96040.06;5024588;28;20045;-69
2023/10/18 05:43:07;;;;;;;37.63;23.45;;;;;;;3.66;100.00;96033.97;5030526;28;20042;-70
2023/10/18 05:45:33;;;;;;;36.47;24.10;;;;;;;3.64;100.00;96042.44;5021753;28;20557;-70
2023/10/18 05:48:03;;;;;;;37.88;23.58;;;;;;;3.74;100.00;96033.06;5015373;28;20033;-69
2023/10/18 05:50:34;;;;;;;;;;;;;;;3.72;100.00;96035.34;4986046;28;20042;-69
2023/10/18 05:53:02;;;;;;;44.00;23.15;;;;;;;3.81;100.00;96030.59;5021407;28;19917;-69
2023/10/18 05:55:30;;;;;;;34.58;21.83;;;;;;;3.81;100.00;96027.88;5033790;28;20484;-68
2023/10/18 05:57:56;;;;;;;34.88;23.17;;;;;;;3.69;100.00;96030.59;5024195;28;20480;-69
2023/10/18 06:00:22;;;;;;;37.08;23.83;;;;;;;3.65;100.00;96024.28;5017786;28;22441;-69
2023/10/18 06:02:48;;;;;;;37.20;24.52;;;;;;;3.64;100.00;96028.13;5021375;28;20128;-67
2023/10/18 06:05:13;;;;;;;35.90;23.83;;;;;;;3.62;100.00;96027.66;5015579;28;20041;-68
2023/10/18 06:07:39;;;;;;;35.08;23.25;;;;;;;3.60;100.00;96032.59;5019239;28;20072;-70
2023/10/18 06:10:16;;;;;;;35.60;23.27;;;;;;;3.58;100.00;96032.97;5015737;28;20041;-66
2023/10/18 06:12:46;;;;;;;34.85;23.15;;;;;;;3.55;100.00;96028.22;5019845;28;20512;-69
2023/10/18 06:15:13;;;;;;;36.95;24.65;;;;;;;3.58;100.00;96046.50;5016208;28;20045;-69
2023/10/18 06:17:50;;;;;;;38.08;24.33;;;;;;;3.64;100.00;96033.53;5020548;28;20045;-69
2023/10/18 06:20:28;;;;;;;37.22;24.92;;;;;;;3.63;100.00;96023.81;5016192;28;20044;-69
2023/10/18 06:23:17;;;;;;;33.67;22.42;;;;;;;3.63;100.00;96024.59;5021434;28;20416;-69
2023/10/18 06:25:45;;;;;;;34.90;24.03;;;;;;;3.62;100.00;96022.25;5023163;28;20038;-69
2023/10/18 06:28:11;;;;;;;34.92;22.77;;;;;;;3.65;100.00;96018.84;5019322;28;20396;-69
2023/10/18 06:30:39;;;;;;;33.88;23.75;;;;;;;3.66;100.00;96019.66;5029707;28;20052;-69
2023/10/18 06:33:12;;;;;;;34.67;23.17;;;;;;;3.67;100.00;96013.88;5010339;28;20068;-69
2023/10/18 06:35:58;;;;;;;35.38;24.88;;;;;;;3.63;100.00;96019.19;5026899;28;20080;-68
2023/10/18 06:38:24;;;;;;;36.13;21.52;;;;;;;3.69;100.00;96033.31;5019340;28;20505;-72
2023/10/18 06:41:00;;;;;;;32.97;22.20;;;;;;;3.68;100.00;96030.94;5024128;28;20099;-69
2023/10/18 06:43:26;;;;;;;33.17;21.67;;;;;;;3.60;100.00;96024.50;5020734;28;20048;-69
2023/10/18 06:45:57;;;;;;;31.88;22.38;;;;;;;3.58;100.00;96021.34;5016441;28;20029;-67
2023/10/18 06:48:26;;;;;;;31.48;22.67;;;;;;;3.59;100.00;96014.81;5000126;28;21049;-68
2023/10/18 06:50:53;;;;;;;33.63;23.30;;;;;;;3.57;100.00;96017.06;4987308;28;20073;-68
2023/10/18 06:53:20;;;;;;;33.75;23.63;;;;;;;3.57;100.00;96017.06;5015091;28;20041;-68
2023/10/18 06:55:58;;;;;;;33.75;22.55;;;;;;;3.58;100.00;96003.19;5024818;28;20515;-68
2023/10/18 07:00:53;;;;;;;38.72;25.40;;;;;;;3.60;100.00;96002.81;5006846;28;20033;-68
2023/10/18 07:03:24;;;;;;;42.22;26.27;;;;;;;3.66;100.00;96001.50;5018525;28;20126;-69
2023/10/18 07:05:52;;;;;;;42.55;26.95;;;;;;;3.58;100.00;95992.34;5023285;28;20042;-68
2023/10/18 07:08:25;;;;;;;41.67;27.27;;;;;;;3.54;100.00;95987.94;5018639;28;20042;-68
2023/10/18 07:10:54;;;;;;;44.53;29.08;;;;;;;3.55;100.00;95971.38;5023111;28;20068;-68
2023/10/18 07:13:38;;;;;;;42.65;26.35;;;;;;;3.66;100.00;95971.69;5020398;28;20042;-68
2023/10/18 07:16:12;;;;;;;46.88;30.20;;;;;;;3.66;100.00;95974.41;5025738;28;20087;-67
2023/10/18 07:18:42;;;;;;;52.72;33.17;;;;;;;3.70;100.00;95977.22;5023799;28;20430;-68
2023/10/18 07:21:09;;;;;;;51.72;32.08;;;;;;;3.67;100.00;95961.66;5018543;28;20029;-69
2023/10/18 07:23:36;;;;;;;52.20;31.42;;;;;;;3.72;100.00;95967.63;5023141;28;20087;-68
2023/10/18 07:26:07;;;;;;;52.58;29.85;;;;;;;3.71;100.00;95986.91;5023177;28;20116;-68
2023/10/18 07:28:35;;;;;;;46.35;27.35;;;;;;;3.74;100.00;96003.28;5031202;28;20042;-67
2023/10/18 07:31:05;;;;;;;53.30;31.00;;;;;;;3.63;100.00;95997.53;5022726;28;20037;-69
2023/10/18 07:33:30;;;;;;;;;;;;;;;3.70;100.00;96007.03;5022935;28;20375;-68
2023/10/18 07:35:56;;;;;;;44.67;24.60;;;;;;;3.94;100.00;96020.56;5021383;28;19923;-67
2023/10/18 07:38:25;;;;;;;41.72;24.83;;;;;;;4.07;100.00;96031.38;5017536;28;21212;-69
2023/10/18 07:40:59;;;;;;;41.47;23.85;;;;;;;4.38;100.00;96031.53;5021279;28;20044;-68
2023/10/18 07:43:25;;;;;;;40.63;24.38;;;;;;;4.04;100.00;96010.38;5025582;28;20110;-68
2023/10/18 07:45:55;;;;;;;41.33;24.45;;;;;;;4.08;100.00;96009.34;5024525;28;20045;-68
2023/10/18 07:48:20;;;;;;;39.95;26.05;;;;;;;4.07;100.00;96004.25;5015151;28;20033;-67
2023/10/18 07:50:52;;;;;;;43.28;25.23;;;;;;;4.05;100.00;95993.75;5021606;28;20048;-68
2023/10/18 07:53:20;;;;;;;39.25;24.42;;;;;;;4.12;100.00;95996.69;5017250;28;20492;-69
2023/10/18 07:55:57;;;;;;;37.67;23.08;;;;;;;4.14;100.00;95993.63;5022025;28;20041;-68
2023/10/18 07:58:26;;;;;;;35.47;23.77;;;;;;;4.20;100.00;95984.16;5016748;28;20823;-68
2023/10/18 08:01:13;;;;;;;39.88;25.33;;;;;;;4.34;100.00;95979.16;5023521;28;20552;-68
2023/10/18 08:03:38;;;;;;;36.88;25.30;;;;;;;4.42;100.00;95963.09;5003553;28;20033;-68
2023/10/18 08:06:15;;;;;;;41.53;26.48;;;;;;;4.47;100.00;95955.50;5016255;28;20095;-67
2023/10/18 08:08:41;;;;;;;38.40;24.88;;;;;;;4.65;100.00;95960.63;5022790;28;20043;-68
2023/10/18 08:11:11;;;;;;;36.25;24.40;;;;;;;4.58;100.00;95943.00;5017475;28;20498;-67
2023/10/18 08:13:47;;;;;;;41.97;25.85;;;;;;;4.68;100.00;95939.03;5023342;28;20071;-68
2023/10/18 08:16:19;;;;;;;35.83;23.20;;;;;;;4.71;100.00;95929.38;5023656;28;20037;-68
2023/10/18 08:18:52;;;;;;;35.70;22.85;;;;;;;4.86;100.00;95935.97;5023239;28;20046;-68
2023/10/18 08:21:39;;;;;;;33.08;22.25;;;;;;;4.98;100.00;95942.09;5016552;28;20087;-68
2023/10/18 08:24:09;;;;;;;34.20;21.73;;;;;;;4.94;100.00;95943.94;5017223;28;20033;-68
2023/10/18 08:26:47;;;;;;;32.85;21.83;;;;;;;5.21;100.00;95967.88;5021804;28;20123;-68
2023/10/18 08:29:15;;;;;;;36.95;23.33;;;;;;;5.19;100.00;95965.53;5017818;28;20037;-68
2023/10/18 08:31:48;;;;;;;35.30;22.60;;;;;;;5.22;100.00;95964.84;5023999;28;20037;-68
2023/10/18 08:34:18;;;;;;;32.47;21.15;;;;;;;5.46;100.00;95971.22;5018569;28;20060;-68
2023/10/18 08:36:44;;;;;;;30.60;19.27;;;;;;;5.91;100.00;95965.28;5021651;28;20128;-67
2023/10/18 08:39:10;;;;;;;38.55;24.27;;;;;;;5.77;100.00;95932.34;5017803;28;20373;-68
2023/10/18 08:41:44;;;;;;;32.47;20.48;;;;;;;5.75;100.00;95929.22;5020727;28;20037;-69
2023/10/18 08:44:19;;;;;;;32.42;20.15;;;;;;;5.85;100.00;95936.81;5017803;28;20034;-68
2023/10/18 08:47:04;;;;;;;32.67;19.65;;;;;;;6.06;100.00;95933.00;5000624;28;20038;-68
2023/10/18 08:49:33;;;;;;;36.38;22.77;;;;;;;6.13;100.00;95927.72;5021381;28;20207;-68
2023/10/18 08:52:08;;;;;;;31.45;21.42;;;;;;;5.96;100.00;95926.22;5022411;28;20458;-68
2023/10/18 08:54:39;;;;;;;32.55;21.95;;;;;;;6.11;100.00;95919.91;5021684;28;20039;-69
2023/10/18 08:57:11;;;;;;;32.22;20.30;;;;;;;6.01;100.00;95914.25;5018726;28;20053;-68
2023/10/18 08:59:48;;;;;;;29.67;18.90;;;;;;;6.10;100.00;95914.84;5029147;28;20138;-68
2023/10/18 09:04:44;;;;;;;32.22;21.45;;;;;;;6.04;100.00;95892.59;5022368;28;20042;-68
2023/10/18 09:07:22;;;;;;;29.65;19.25;;;;;;;6.12;100.00;95888.06;4999388;28;20064;-69
2023/10/18 09:09:56;;;;;;;27.42;19.55;;;;;;;6.15;100.00;95876.50;5023322;28;20045;-69
2023/10/18 09:12:33;;;;;;;28.23;20.80;;;;;;;6.19;100.00;95866.47;5017123;28;20348;-68
2023/10/18 09:14:59;;;;;;;25.85;18.30;;;;;;;6.24;100.00;95855.31;5022012;28;20098;-70
2023/10/18 09:17:25;;;;;;;21.40;15.57;;;;;;;6.35;100.00;95863.69;5016655;28;20052;-69
2023/10/18 09:19:55;;;;;;;22.45;16.05;;;;;;;6.43;100.00;95867.34;5033158;28;20041;-68
2023/10/18 09:22:21;;;;;;;21.58;15.32;;;;;;;6.66;100.00;95880.94;5024942;28;20080;-69
2023/10/18 09:24:46;;;;;;;19.15;14.30;;;;;;;6.94;100.00;95890.78;5020727;28;20069;-69
2023/10/18 09:27:15;;;;;;;18.85;13.75;;;;;;;7.17;100.00;95894.31;5017865;28;20041;-69
2023/10/18 09:29:42;;;;;;;20.00;13.80;;;;;;;7.06;100.00;95887.91;5021315;28;20048;-69
2023/10/18 09:32:19;;;;;;;17.90;13.45;;;;;;;6.82;100.00;95887.06;5016539;28;20038;-69
2023/10/18 09:34:46;;;;;;;20.98;14.07;;;;;;;6.87;100.00;95880.56;5022910;28;20037;-69
2023/10/18 09:37:11;;;;;;;20.10;14.45;;;;;;;6.83;100.00;95877.00;5015744;28;20037;-69
2023/10/18 09:39:43;;;;;;;19.10;14.35;;;;;;;7.05;100.00;95868.03;5021741;28;20175;-69
2023/10/18 09:42:12;;;;;;;18.17;14.05;;;;;;;7.32;100.00;95864.56;5015862;28;20084;-68
2023/10/18 09:44:41;;;;;;;20.08;13.73;;;;;;;7.37;100.00;95856.88;5020290;28;20073;-72
2023/10/18 09:47:07;;;;;;;21.70;14.52;;;;;;;7.75;100.00;95848.84;5012479;28;20037;-69
2023/10/18 09:49:33;;;;;;;17.10;13.13;;;;;;;7.92;100.00;95842.81;5020887;28;20125;-70
2023/10/18 09:52:03;;;;;;;17.58;12.52;;;;;;;7.88;100.00;95849.41;5022869;28;20033;-69
2023/10/18 09:54:34;;;;;;;17.23;12.60;;;;;;;7.94;100.00;95840.53;5020994;28;20050;-69
2023/10/18 09:57:01;;;;;;;16.58;12.20;;;;;;;8.00;100.00;95830.84;5015145;28;20049;-69
2023/10/18 09:59:30;;;;;;;16.52;12.05;;;;;;;8.38;100.00;95831.69;5019952;28;20056;-69
2023/10/18 10:02:00;;;;;;;13.88;10.25;;;;;;;8.49;100.00;95829.09;5034019;28;20468;-68
2023/10/18 10:04:32;;;;;;;14.57;11.15;;;;;;;8.57;100.00;95817.09;5021271;28;20049;-68
2023/10/18 10:09:47;;;;;;;14.90;11.35;;;;;;;8.45;100.00;95817.38;5026518;28;20045;-68
2023/10/18 10:12:17;;;;;;;18.80;11.93;;;;;;;8.48;100.00;95819.34;5021578;28;20038;-69
2023/10/18 10:14:42;;;;;;;;;;;;;;;8.71;100.00;95818.38;5026839;28;20073;-69
2023/10/18 10:17:12;;;;;;;15.63;11.95;;;;;;;8.85;100.00;95815.78;5022434;28;19971;-69
2023/10/18 10:19:41;;;;;;;15.70;11.25;;;;;;;8.91;100.00;95833.41;5028399;28;20128;-69
2023/10/18 10:22:08;;;;;;;16.02;11.18;;;;;;;9.21;100.00;95832.47;5021812;28;20416;-68
2023/10/18 10:24:43;;;;;;;15.85;11.70;;;;;;;9.13;100.00;95826.19;5026585;28;20124;-67
2023/10/18 10:27:27;;;;;;;17.95;12.20;;;;;;;9.14;100.00;95816.81;5022178;28;20135;-68
2023/10/18 10:29:57;;;;;;;15.32;11.20;;;;;;;9.36;100.00;95808.75;5026691;28;20598;-69
2023/10/18 10:32:26;;;;;;;15.48;11.60;;;;;;;9.54;100.00;95809.69;5019868;28;20096;-69
2023/10/18 10:35:15;;;;;;;16.15;11.88;;;;;;;9.30;100.00;95819.25;5026452;28;20038;-68
2023/10/18 10:38:09;;;;;;;18.65;12.55;;;;;;;9.67;100.00;95812.06;5025824;28;20132;-67
2023/10/18 10:40:39;;;;;;;20.30;12.63;;;;;;;9.53;100.00;95808.09;5034497;28;20072;-68
2023/10/18 10:43:18;;;;;;;18.42;12.07;;;;;;;9.95;100.00;95805.97;5020975;28;20520;-67
2023/10/18 10:48:37;;;;;;;;;;;;;;;9.95;100.00;95790.31;5021461;28;20085;-68
2023/10/18 10:51:20;;;;;;;16.45;11.73;;;;;;;9.37;100.00;95788.47;5025536;28;19963;-68
2023/10/18 10:53:58;;;;;;;15.77;11.32;;;;;;;9.84;100.00;95788.72;5025490;28;20048;-68
2023/10/18 10:56:27;;;;;;;13.80;9.85;;;;;;;10.16;100.00;95802.53;5017062;28;20944;-70
2023/10/18 11:04:25;;;;;;;12.88;9.88;;;;;;;10.03;100.00;95771.19;5003418;28;20044;-67
2023/10/18 11:07:01;;;;;;;14.27;10.57;;;;;;;10.41;100.00;95788.19;5025384;28;20042;-69
2023/10/18 11:09:33;;;;;;;15.18;10.30;;;;;;;10.62;100.00;95776.47;5020024;28;20049;-69
2023/10/18 11:12:13;;;;;;;15.75;10.52;;;;;;;11.14;100.00;95765.91;5025665;28;20364;-69
2023/10/18 11:14:42;;;;;;;14.77;10.13;;;;;;;11.61;100.00;95766.63;5026827;28;20041;-68
2023/10/18 11:19:58;;;;;;;14.02;9.20;;;;;;;12.28;100.00;95758.56;5025777;28;20041;-68
2023/10/18 11:22:24;;;;;;;11.23;8.85;;;;;;;12.23;100.00;95764.47;5017923;28;20320;-68
2023/10/18 11:24:51;;;;;;;13.57;9.13;;;;;;;12.13;100.00;95755.06;5024776;28;20041;-69
2023/10/18 11:27:21;;;;;;;13.48;8.50;;;;;;;12.33;100.00;95752.63;5020184;28;20042;-68
2023/10/18 11:29:47;;;;;;;13.70;9.30;;;;;;;12.14;100.00;95755.88;5024480;28;20037;-69
2023/10/18 11:32:18;;;;;;;12.40;9.45;;;;;;;12.22;100.00;95747.19;5019205;28;20044;-68
2023/10/18 11:34:46;;;;;;;13.27;9.15;;;;;;;12.26;100.00;95751.88;5031722;28;20041;-69
2023/10/18 11:39:57;;;;;;;12.52;9.73;;;;;;;11.95;100.00;95740.66;5026143;28;20052;-68
2023/10/18 11:42:22;;;;;;;16.52;13.05;;;;;;;11.98;100.00;95742.63;5019510;28;20515;-68
2023/10/18 11:44:52;;;;;;;14.52;10.52;;;;;;;11.78;100.00;95745.78;5024076;28;20049;-68
2023/10/18 11:47:21;;;;;;;15.52;9.75;;;;;;;11.67;100.00;95732.13;5017553;28;20459;-69
2023/10/18 11:49:57;;;;;;;13.07;9.27;;;;;;;11.71;100.00;95723.09;5031001;28;20501;-68
2023/10/18 11:52:22;;;;;;;14.68;9.65;;;;;;;11.56;100.00;95731.38;5020330;28;20088;-68
2023/10/18 11:55:02;;;;;;;14.00;9.65;;;;;;;11.62;100.00;95735.28;5005889;28;20064;-68
2023/10/18 11:57:35;;;;;;;19.02;10.35;;;;;;;11.45;100.00;95716.91;5021886;28;20037;-69
2023/10/18 12:02:46;;;;;;;12.95;10.00;;;;;;;10.98;100.00;95710.72;5024218;28;20108;-67
2023/10/18 12:05:16;;;;;;;14.75;10.63;;;;;;;11.08;100.00;95709.94;5018431;28;20125;-68
2023/10/18 12:07:48;;;;;;;16.40;12.07;;;;;;;10.69;100.00;95686.09;5024709;28;20033;-68
2023/10/18 12:10:18;;;;;;;17.05;12.13;;;;;;;9.82;100.00;95681.69;5001467;28;20029;-68
2023/10/18 12:12:49;;;;;;;15.43;11.55;;;;;;;10.14;100.00;95684.50;5024017;28;20048;-69
2023/10/18 12:15:15;;;;;;;17.52;12.48;;;;;;;10.36;100.00;95685.31;5013587;28;20041;-68
2023/10/18 12:17:41;;;;;;;17.45;11.18;;;;;;;10.48;100.00;95673.22;5023846;28;20037;-68
2023/10/18 12:20:08;;;;;;;16.58;11.52;;;;;;;10.33;100.00;95675.94;5019895;28;20041;-68
2023/10/18 12:22:36;;;;;;;16.55;12.15;;;;;;;10.21;100.00;95670.00;5024385;28;20045;-69
2023/10/18 12:25:02;;;;;;;17.40;11.77;;;;;;;10.22;100.00;95672.38;5025999;28;20030;-69